Time;durP1;ratioP1;P1;durP2;ratioP2;P2;SDS_P1;SDS_P2;PMS_P1;PMS_P2;Temp;Humidity;BMP_temperature;BMP_pressure;BME280_temperature;BME280_humidity;BME280_pressure;Samples;Min_cycle;Max_cycle;Signal;HPM_P1;HPM_P2
2021/07/04 00:00:09;;;;;;;5.18;4.70;;;;;;;15.75;100.00;100587.13;4941669;28;20214;-76
2021/07/04 00:02:39;;;;;;;4.80;4.40;;;;;;;15.70;100.00;100573.56;4973920;28;20218;-75
2021/07/04 00:05:11;;;;;;;4.80;4.40;;;;;;;15.69;100.00;100571.94;4976862;28;20198;-75
2021/07/04 00:07:42;;;;;;;5.07;4.53;;;;;;;15.66;100.00;100578.03;4972365;28;20226;-74
2021/07/04 00:10:10;;;;;;;4.73;4.33;;;;;;;15.54;100.00;100575.81;4956770;28;20202;-75
2021/07/04 00:12:36;;;;;;;4.80;4.40;;;;;;;15.63;100.00;100575.91;4973942;28;20197;-75
2021/07/04 00:15:03;;;;;;;6.03;4.53;;;;;;;15.59;100.00;100570.25;4958315;28;20197;-74
2021/07/04 00:17:29;;;;;;;5.00;4.60;;;;;;;15.65;100.00;100573.69;4957788;28;20230;-75
2021/07/04 00:20:09;;;;;;;5.13;4.63;;;;;;;15.59;100.00;100572.16;4976074;28;20528;-77
2021/07/04 00:22:34;;;;;;;5.18;4.68;;;;;;;15.49;100.00;100575.94;4959132;28;20225;-74
2021/07/04 00:25:04;;;;;;;4.53;4.13;;;;;;;15.52;100.00;100577.25;4993415;28;20681;-76
2021/07/04 00:27:32;;;;;;;5.43;4.38;;;;;;;15.36;100.00;100578.66;4941226;28;20377;-74
2021/07/04 00:29:57;;;;;;;4.68;4.28;;;;;;;15.29;100.00;100570.06;4973710;28;20210;-74
2021/07/04 00:32:24;;;;;;;4.20;3.90;;;;;;;15.31;100.00;100576.06;4965070;28;20233;-74
2021/07/04 00:34:50;;;;;;;4.97;4.13;;;;;;;15.38;100.00;100562.75;4960021;28;21000;-76
2021/07/04 00:37:16;;;;;;;4.55;4.20;;;;;;;15.40;100.00;100568.72;4957422;28;20218;-75
2021/07/04 00:39:42;;;;;;;4.70;4.30;;;;;;;15.39;100.00;100564.38;4958627;28;20182;-74
2021/07/04 00:42:10;;;;;;;5.00;4.50;;;;;;;15.30;100.00;100558.00;4972041;28;20210;-75
2021/07/04 00:44:38;;;;;;;5.05;4.55;;;;;;;15.16;100.00;100572.78;4957708;28;20192;-74
2021/07/04 00:47:04;;;;;;;5.47;4.93;;;;;;;15.13;100.00;100555.06;4957095;28;20222;-74
2021/07/04 00:49:30;;;;;;;5.20;4.75;;;;;;;14.94;100.00;100569.09;4974056;28;20692;-73
2021/07/04 00:51:58;;;;;;;5.70;5.13;;;;;;;14.93;100.00;100564.78;4964073;28;20249;-74
2021/07/04 00:54:24;;;;;;;4.97;4.45;;;;;;;14.99;100.00;100559.69;4958706;28;20683;-74
2021/07/04 00:56:50;;;;;;;5.13;4.63;;;;;;;14.99;100.00;100560.81;4972938;28;20222;-74
2021/07/04 00:59:16;;;;;;;5.67;4.63;;;;;;;14.84;100.00;100558.38;4973648;28;20178;-75
2021/07/04 01:01:42;;;;;;;5.43;4.70;;;;;;;14.86;100.00;100556.94;4956008;28;20241;-74
2021/07/04 01:04:10;;;;;;;5.50;5.00;;;;;;;14.90;100.00;100548.94;4942487;28;20229;-74
2021/07/04 01:06:36;;;;;;;5.17;4.67;;;;;;;14.74;100.00;100550.34;4956207;28;20273;-74
2021/07/04 01:09:04;;;;;;;6.63;5.33;;;;;;;14.75;100.00;100555.50;4957471;28;20293;-75
2021/07/04 01:11:32;;;;;;;5.50;5.00;;;;;;;14.78;100.00;100548.63;4956013;28;20226;-74
2021/07/04 01:14:03;;;;;;;5.93;5.00;;;;;;;14.81;100.00;100548.03;4973061;28;20609;-75
2021/07/04 01:16:30;;;;;;;5.53;4.80;;;;;;;14.82;100.00;100544.19;4942129;28;20234;-73
2021/07/04 01:18:58;;;;;;;5.20;4.70;;;;;;;14.82;100.00;100539.53;4940724;28;20591;-74
2021/07/04 01:21:30;;;;;;;5.10;4.70;;;;;;;14.81;100.00;100548.81;4961657;28;20221;-74
2021/07/04 01:24:01;;;;;;;5.00;4.60;;;;;;;14.84;100.00;100536.50;4926390;28;20195;-73
2021/07/04 01:26:29;;;;;;;4.90;4.40;;;;;;;14.69;100.00;100539.50;4973221;28;20229;-73
2021/07/04 01:28:59;;;;;;;5.17;4.67;;;;;;;14.73;100.00;100548.72;4954164;28;20213;-74
2021/07/04 01:31:26;;;;;;;4.53;4.13;;;;;;;14.70;100.00;100541.13;4955598;28;20230;-74
2021/07/04 01:33:58;;;;;;;5.30;4.80;;;;;;;14.66;100.00;100543.66;4963254;28;20245;-75
2021/07/04 01:36:32;;;;;;;5.40;4.90;;;;;;;14.58;100.00;100540.81;4980393;28;20253;-73
2021/07/04 01:39:03;;;;;;;5.30;4.90;;;;;;;14.45;100.00;100541.59;4976251;28;20257;-75
2021/07/04 01:41:37;;;;;;;5.17;4.60;;;;;;;14.49;100.00;100528.94;4955236;28;20237;-74
2021/07/04 01:44:10;;;;;;;5.10;4.50;;;;;;;14.43;100.00;100523.84;4958277;28;20264;-73
2021/07/04 01:46:41;;;;;;;5.43;4.90;;;;;;;14.48;100.00;100519.09;4957241;28;20234;-75
2021/07/04 01:49:11;;;;;;;5.37;4.87;;;;;;;14.46;100.00;100521.34;4957396;28;20854;-73
2021/07/04 01:51:37;;;;;;;5.20;4.80;;;;;;;14.51;100.00;100521.25;4947898;28;20221;-75
2021/07/04 01:54:07;;;;;;;5.37;4.90;;;;;;;14.53;100.00;100524.50;4960516;28;20496;-74
2021/07/04 01:56:41;;;;;;;5.17;4.67;;;;;;;14.47;100.00;100522.97;4956313;28;20284;-73
2021/07/04 01:59:08;;;;;;;5.57;5.00;;;;;;;14.48;100.00;100519.09;4956301;28;20190;-76
2021/07/04 02:01:44;;;;;;;4.67;4.27;;;;;;;14.50;100.00;100508.69;4956346;28;20226;-74
2021/07/04 02:04:13;;;;;;;5.10;4.60;;;;;;;14.53;100.00;100519.03;4971194;28;20270;-75
2021/07/04 02:06:42;;;;;;;4.90;4.50;;;;;;;14.50;100.00;100510.63;4952764;28;20233;-75
2021/07/04 02:09:11;;;;;;;4.83;4.43;;;;;;;14.47;100.00;100514.78;4950138;28;20269;-75
2021/07/04 02:11:38;;;;;;;5.00;4.50;;;;;;;14.34;100.00;100521.00;4970984;28;20715;-75
2021/07/04 02:14:11;;;;;;;5.03;4.53;;;;;;;14.25;100.00;100514.63;4953320;28;20191;-75
2021/07/04 02:16:44;;;;;;;7.70;4.90;;;;;;;14.30;100.00;100520.00;4968276;28;20226;-75
2021/07/04 02:19:48;;;;;;;4.80;4.40;;;;;;;14.25;100.00;100522.81;4955055;28;20229;-75
2021/07/04 02:22:30;;;;;;;5.27;4.77;;;;;;;14.10;100.00;100524.16;4941384;28;20225;-75
2021/07/04 02:25:21;;;;;;;5.37;4.90;;;;;;;14.36;100.00;100529.72;4952470;28;20706;-74
2021/07/04 02:27:53;;;;;;;5.53;4.87;;;;;;;14.52;100.00;100525.59;4968164;28;20203;-75
2021/07/04 02:30:25;;;;;;;4.93;4.53;;;;;;;14.53;100.00;100524.50;4956124;28;20768;-74
2021/07/04 02:32:53;;;;;;;5.40;4.90;;;;;;;14.55;100.00;100516.00;4972337;28;20210;-73
2021/07/04 02:35:21;;;;;;;6.00;5.40;;;;;;;14.46;100.00;100523.25;4957513;28;20195;-74
2021/07/04 02:37:47;;;;;;;4.97;4.57;;;;;;;14.53;100.00;100520.97;4956047;28;20205;-73
2021/07/04 02:40:19;;;;;;;6.27;4.63;;;;;;;14.54;100.00;100526.13;4922828;28;20183;-75
2021/07/04 02:42:51;;;;;;;4.70;4.30;;;;;;;14.59;100.00;100526.00;4937651;29;20179;-73
2021/07/04 02:45:17;;;;;;;4.53;4.10;;;;;;;14.48;100.00;100524.56;4970516;28;20190;-75
2021/07/04 02:48:06;;;;;;;4.40;3.93;;;;;;;14.45;100.00;100527.94;5065451;23;20244;-76
2021/07/04 02:50:38;;;;;;;4.70;4.30;;;;;;;14.34;100.00;100531.94;4973760;28;20233;-75
2021/07/04 02:53:05;;;;;;;5.87;4.53;;;;;;;14.29;100.00;100521.09;4985648;28;20196;-76
2021/07/04 02:55:34;;;;;;;4.70;4.20;;;;;;;14.37;100.00;100525.06;4975456;28;20236;-75
2021/07/04 02:58:00;;;;;;;5.83;4.33;;;;;;;14.40;100.00;100528.00;5006810;28;20300;-74
2021/07/04 03:00:34;;;;;;;5.10;4.60;;;;;;;14.30;100.00;100520.00;4973899;28;20234;-74
2021/07/04 03:03:00;;;;;;;4.97;4.57;;;;;;;14.40;100.00;100519.81;4988870;28;20236;-74
2021/07/04 03:05:28;;;;;;;4.30;3.90;;;;;;;14.38;100.00;100519.31;4978402;28;20221;-74
2021/07/04 03:07:55;;;;;;;4.90;4.50;;;;;;;14.33;100.00;100513.91;4956806;28;20260;-73
2021/07/04 03:10:23;;;;;;;4.97;4.57;;;;;;;14.25;100.00;100514.63;4970282;28;20210;-73
2021/07/04 03:12:53;;;;;;;5.10;4.63;;;;;;;14.32;100.00;100516.94;4976459;28;20669;-73
2021/07/04 03:15:21;;;;;;;5.00;4.60;;;;;;;14.33;100.00;100513.91;4988456;28;20226;-75
2021/07/04 03:17:47;;;;;;;6.00;4.40;;;;;;;14.31;100.00;100521.59;4974552;28;20205;-73
2021/07/04 03:20:17;;;;;;;5.10;4.60;;;;;;;14.39;100.00;100520.91;4951095;28;20770;-74
2021/07/04 03:22:48;;;;;;;4.93;4.43;;;;;;;14.42;100.00;100517.59;4987738;28;20576;-75
2021/07/04 03:25:18;;;;;;;5.27;4.77;;;;;;;14.47;100.00;100509.31;5008279;28;20185;-74
2021/07/04 03:27:45;;;;;;;4.93;4.13;;;;;;;14.78;100.00;100500.22;4976507;28;20201;-75
2021/07/04 03:30:16;;;;;;;5.57;4.83;;;;;;;14.91;100.00;100504.88;4955768;28;20249;-75
2021/07/04 03:32:47;;;;;;;5.37;4.60;;;;;;;15.06;100.00;100505.38;4957988;28;20217;-75
2021/07/04 03:35:18;;;;;;;5.00;4.60;;;;;;;15.15;100.00;100506.31;4968657;28;20195;-75
2021/07/04 03:37:46;;;;;;;4.93;4.53;;;;;;;15.31;100.00;100502.16;4977877;28;20798;-74
2021/07/04 03:40:20;;;;;;;6.23;4.60;;;;;;;15.45;100.00;100502.94;4959250;28;20178;-73
2021/07/04 03:42:53;;;;;;;5.60;4.80;;;;;;;15.56;100.00;100496.09;4991828;28;20192;-73
2021/07/04 03:45:23;;;;;;;4.93;4.53;;;;;;;15.65;100.00;100499.72;4993666;28;20261;-75
2021/07/04 03:47:51;;;;;;;4.75;4.35;;;;;;;15.79;100.00;100496.63;4992739;28;20719;-74
2021/07/04 03:50:27;;;;;;;5.88;4.90;;;;;;;15.67;100.00;100489.28;5006576;28;20248;-73
2021/07/04 03:52:56;;;;;;;4.30;3.90;;;;;;;15.64;100.00;100489.88;4950498;28;20191;-74
2021/07/04 03:55:24;;;;;;;4.85;4.43;;;;;;;15.82;100.00;100492.47;4981465;28;20186;-76
2021/07/04 03:57:54;;;;;;;6.25;4.50;;;;;;;15.67;100.00;100497.50;4977519;28;20213;-75
2021/07/04 04:00:27;;;;;;;5.05;4.57;;;;;;;15.69;100.00;100496.06;4991962;28;21782;-75
2021/07/04 04:03:01;;;;;;;5.00;4.60;;;;;;;16.09;100.00;100487.66;4988232;28;20268;-74
2021/07/04 04:05:32;;;;;;;5.72;4.38;;;;;;;16.35;100.00;100488.69;4969809;28;20288;-76
2021/07/04 04:07:58;;;;;;;5.63;4.97;;;;;;;16.48;100.00;100488.59;5012276;28;20258;-74
2021/07/04 04:10:28;;;;;;;5.20;4.70;;;;;;;16.62;100.00;100497.53;5002955;28;20230;-75
2021/07/04 04:13:01;;;;;;;5.32;4.82;;;;;;;16.76;100.00;100501.00;4976962;28;20189;-75
2021/07/04 04:15:29;;;;;;;5.38;4.88;;;;;;;17.01;100.00;100492.84;4992022;28;20226;-73
2021/07/04 04:17:58;;;;;;;5.50;5.00;;;;;;;17.26;100.00;100500.41;4964140;28;20587;-75
2021/07/04 04:20:29;;;;;;;4.90;4.47;;;;;;;17.44;100.00;100502.84;4977943;28;20275;-75
2021/07/04 04:23:00;;;;;;;5.10;4.63;;;;;;;17.58;100.00;100493.34;4972931;28;20825;-75
2021/07/04 04:25:29;;;;;;;5.65;5.15;;;;;;;17.90;100.00;100495.63;4995540;28;20272;-75
2021/07/04 04:27:56;;;;;;;5.28;4.88;;;;;;;17.98;100.00;100492.03;4980058;28;20205;-75
2021/07/04 04:30:23;;;;;;;5.00;4.60;;;;;;;18.23;100.00;100492.84;4958983;28;20234;-75
2021/07/04 04:32:53;;;;;;;5.20;4.78;;;;;;;18.43;100.00;100503.19;4943715;28;20659;-75
2021/07/04 04:35:18;;;;;;;4.85;4.45;;;;;;;18.70;100.00;100505.50;4965786;28;20205;-75
2021/07/04 04:37:44;;;;;;;4.50;4.05;;;;;;;18.91;100.00;100508.03;4992267;28;20229;-74
2021/07/04 04:40:13;;;;;;;4.68;4.00;;;;;;;18.98;100.00;100499.28;4975461;28;20183;-75
2021/07/04 04:42:39;;;;;;;4.75;3.92;;;;;;;19.10;100.00;100502.97;4995298;28;20182;-76
2021/07/04 04:45:05;;;;;;;4.75;4.35;;;;;;;18.94;100.00;100521.13;4978823;28;20194;-75
2021/07/04 04:47:36;;;;;;;4.43;4.03;;;;;;;19.02;100.00;100503.81;4974160;28;20318;-75
2021/07/04 04:50:06;;;;;;;4.75;4.28;;;;;;;19.23;100.00;100512.13;4973912;28;20214;-73
2021/07/04 04:52:31;;;;;;;4.78;4.28;;;;;;;19.27;100.00;100500.91;4969498;28;20196;-76
2021/07/04 04:55:01;;;;;;;4.00;3.70;;;;;;;19.51;100.00;100500.28;4962237;28;20180;-73
2021/07/04 04:57:31;;;;;;;4.43;4.10;;;;;;;19.37;100.00;100499.72;4961626;28;20251;-75
2021/07/04 04:59:59;;;;;;;4.65;4.22;;;;;;;19.62;100.00;100490.50;4979534;28;20236;-74
2021/07/04 05:02:27;;;;;;;3.97;3.67;;;;;;;19.74;100.00;100494.94;4960100;28;20221;-74
2021/07/04 05:04:53;;;;;;;4.63;4.20;;;;;;;19.74;100.00;100480.31;4996828;28;20189;-74
2021/07/04 05:07:19;;;;;;;5.32;3.85;;;;;;;19.78;100.00;100486.78;4961696;28;20226;-74
2021/07/04 05:09:50;;;;;;;4.47;4.07;;;;;;;19.89;100.00;100486.09;4994531;28;20214;-77
2021/07/04 05:12:15;;;;;;;4.38;3.97;;;;;;;20.04;100.00;100488.22;4993097;28;20788;-73
2021/07/04 05:14:41;;;;;;;4.30;4.00;;;;;;;20.06;100.00;100480.41;4978331;28;20174;-75
2021/07/04 05:17:09;;;;;;;4.28;3.60;;;;;;;20.06;100.00;100490.66;4974045;28;20229;-75
2021/07/04 05:19:39;;;;;;;4.20;3.80;;;;;;;20.11;100.00;100489.28;4975014;28;20587;-74
2021/07/04 05:22:05;;;;;;;4.22;3.58;;;;;;;20.54;100.00;100484.94;4981552;28;20215;-75
2021/07/04 05:24:31;;;;;;;4.30;3.90;;;;;;;20.53;100.00;100490.78;4959106;28;20182;-74
2021/07/04 05:26:56;;;;;;;3.85;3.55;;;;;;;20.51;99.98;100482.88;4952146;28;20237;-76
2021/07/04 05:29:22;;;;;;;4.03;3.72;;;;;;;20.95;97.65;100487.53;4992664;28;20666;-74
2021/07/04 05:31:48;;;;;;;4.63;3.75;;;;;;;21.08;96.54;100475.34;5009812;28;20252;-75
2021/07/04 05:34:16;;;;;;;3.72;3.42;;;;;;;21.25;96.84;100464.88;4968742;28;20189;-75
2021/07/04 05:36:46;;;;;;;4.18;3.80;;;;;;;21.37;96.21;100479.50;4999645;28;20217;-76
2021/07/04 05:39:13;;;;;;;3.83;3.53;;;;;;;21.48;93.50;100474.31;4995055;28;20182;-76
2021/07/04 05:41:39;;;;;;;4.20;3.58;;;;;;;21.64;91.10;100473.25;4977124;28;20221;-75
2021/07/04 05:44:07;;;;;;;3.65;3.35;;;;;;;21.29;91.49;100483.16;4994411;28;20264;-76
2021/07/04 05:46:34;;;;;;;3.65;3.35;;;;;;;21.52;91.58;100476.06;4957791;28;20601;-75
2021/07/04 05:49:00;;;;;;;3.92;3.63;;;;;;;21.33;90.34;100473.03;4959394;28;20583;-75
2021/07/04 05:51:28;;;;;;;4.25;3.85;;;;;;;21.34;93.92;100474.66;4976101;28;20391;-75
2021/07/04 05:53:54;;;;;;;4.45;4.00;;;;;;;21.24;91.05;100469.59;4974159;28;20190;-76
2021/07/04 05:56:19;;;;;;;4.00;3.70;;;;;;;21.58;92.29;100471.09;4957806;28;20298;-75
2021/07/04 05:58:45;;;;;;;4.03;3.55;;;;;;;21.75;92.46;100469.63;4994186;28;20206;-76
2021/07/04 06:01:18;;;;;;;4.05;3.75;;;;;;;21.37;93.06;100475.91;4991865;28;20217;-75
2021/07/04 06:03:44;;;;;;;4.30;3.90;;;;;;;21.70;92.85;100469.06;4978577;28;20893;-75
2021/07/04 06:06:12;;;;;;;4.28;3.88;;;;;;;21.90;93.55;100466.13;5004820;28;20220;-76
2021/07/04 06:08:37;;;;;;;4.90;4.00;;;;;;;21.82;92.82;100463.53;4994577;28;20216;-75
2021/07/04 06:11:06;;;;;;;4.55;3.95;;;;;;;22.11;92.25;100462.03;5012055;28;20232;-75
2021/07/04 06:13:32;;;;;;;4.50;4.10;;;;;;;22.23;90.66;100459.22;4994155;28;20190;-75
2021/07/04 06:15:57;;;;;;;4.07;3.70;;;;;;;22.38;90.42;100457.63;4958681;28;20229;-77
2021/07/04 06:18:24;;;;;;;4.38;3.97;;;;;;;22.66;90.22;100456.44;4983720;28;20206;-74
2021/07/04 06:20:50;;;;;;;5.85;4.22;;;;;;;22.24;89.74;100460.84;4974272;28;20870;-74
2021/07/04 06:23:16;;;;;;;4.50;4.10;;;;;;;22.07;92.16;100471.41;4964745;28;20332;-74
2021/07/04 06:25:41;;;;;;;5.00;4.50;;;;;;;22.42;90.18;100460.16;4963913;28;20715;-74
2021/07/04 06:28:09;;;;;;;4.80;4.35;;;;;;;22.55;91.19;100467.25;4990790;28;20205;-75
2021/07/04 06:30:35;;;;;;;4.82;4.22;;;;;;;22.83;89.65;100462.44;4965331;28;20238;-75
2021/07/04 06:33:01;;;;;;;4.53;4.13;;;;;;;22.86;89.75;100462.53;4964296;28;20556;-77
2021/07/04 06:35:27;;;;;;;4.70;4.30;;;;;;;22.92;90.14;100466.66;4981325;28;20262;-75
2021/07/04 06:37:53;;;;;;;4.30;4.00;;;;;;;23.22;88.63;100460.28;4987441;28;20198;-76
2021/07/04 06:40:21;;;;;;;4.85;4.30;;;;;;;23.25;86.56;100447.66;4955718;28;20241;-77
2021/07/04 06:42:47;;;;;;;4.30;3.90;;;;;;;23.44;87.65;100456.03;4978988;28;20268;-76
2021/07/04 06:45:12;;;;;;;4.53;4.22;;;;;;;23.19;87.71;100452.69;4975153;28;20662;-76
2021/07/04 06:47:41;;;;;;;6.35;4.43;;;;;;;23.62;87.00;100463.63;4972115;28;20233;-77
2021/07/04 06:50:07;;;;;;;4.90;4.50;;;;;;;23.76;86.38;100453.63;4968692;28;20739;-75
2021/07/04 06:52:33;;;;;;;4.80;4.32;;;;;;;23.86;86.11;100457.78;4950706;28;20177;-75
2021/07/04 06:55:01;;;;;;;6.13;4.30;;;;;;;24.14;84.65;100457.22;4972091;28;20544;-75
2021/07/04 06:57:30;;;;;;;4.85;4.45;;;;;;;24.28;83.02;100457.50;4968114;28;20230;-76
2021/07/04 07:00:04;;;;;;;5.75;4.50;;;;;;;24.42;82.44;100458.59;4982481;28;20197;-75
2021/07/04 07:02:33;;;;;;;4.90;4.50;;;;;;;24.54;81.26;100452.88;4989673;28;20272;-74
2021/07/04 07:04:58;;;;;;;4.57;4.18;;;;;;;24.88;80.27;100451.88;4976274;28;20618;-73
2021/07/04 07:07:24;;;;;;;5.15;4.65;;;;;;;24.69;78.97;100451.97;4977947;28;20225;-75
2021/07/04 07:09:49;;;;;;;4.60;4.20;;;;;;;24.94;77.37;100445.66;4973273;28;20667;-77
2021/07/04 07:12:18;;;;;;;4.43;4.03;;;;;;;25.20;78.04;100440.94;4989663;28;20225;-74
2021/07/04 07:14:44;;;;;;;4.90;4.30;;;;;;;25.08;77.98;100434.78;4969431;28;20212;-75
2021/07/04 07:17:09;;;;;;;6.60;4.68;;;;;;;24.71;82.19;100446.84;4962944;28;20899;-75
2021/07/04 07:19:40;;;;;;;5.53;4.78;;;;;;;25.25;79.34;100446.16;4965605;28;20190;-74
2021/07/04 07:22:12;;;;;;;5.40;4.40;;;;;;;25.10;79.21;100442.75;4959078;28;20221;-75
2021/07/04 07:24:38;;;;;;;4.95;4.55;;;;;;;25.23;78.29;100451.31;4992979;28;20188;-75
2021/07/04 07:27:06;;;;;;;5.50;4.30;;;;;;;25.42;78.96;100445.66;4972363;28;20245;-75
2021/07/04 07:29:34;;;;;;;5.28;4.00;;;;;;;25.48;78.96;100446.94;4957919;28;20241;-74
2021/07/04 07:32:05;;;;;;;4.35;3.92;;;;;;;25.53;80.89;100441.84;4962526;28;20289;-74
2021/07/04 07:34:35;;;;;;;4.53;4.13;;;;;;;25.34;77.60;100437.56;4999151;28;20192;-76
2021/07/04 07:37:06;;;;;;;14.40;13.02;;;;;;;25.36;76.62;100441.56;4969031;28;20218;-75
2021/07/04 07:39:34;;;;;;;8.23;7.47;;;;;;;25.98;77.04;100447.25;4991645;28;20256;-74
2021/07/04 07:42:07;;;;;;;5.07;4.50;;;;;;;25.82;73.73;100443.84;4973316;28;20229;-72
2021/07/04 07:44:35;;;;;;;6.20;4.97;;;;;;;25.91;75.01;100446.34;4972082;28;20201;-73
2021/07/04 07:47:04;;;;;;;4.95;4.43;;;;;;;25.83;74.74;100441.88;4971258;28;20277;-76
2021/07/04 07:49:32;;;;;;;5.07;4.60;;;;;;;25.36;75.93;100451.91;4971910;28;20593;-76
2021/07/04 07:52:00;;;;;;;4.35;4.05;;;;;;;25.17;76.67;100443.66;4980515;28;20761;-76
2021/07/04 07:54:37;;;;;;;4.30;4.00;;;;;;;25.56;78.03;100434.72;4979746;28;20181;-71
2021/07/04 07:57:03;;;;;;;5.03;4.57;;;;;;;25.33;75.52;100439.56;4977386;28;20222;-74
2021/07/04 07:59:31;;;;;;;5.10;4.60;;;;;;;24.93;76.38;100444.06;4978263;28;20657;-77
2021/07/04 08:01:57;;;;;;;5.40;4.68;;;;;;;25.11;76.98;100439.59;4959386;28;20221;-76
2021/07/04 08:04:23;;;;;;;4.80;4.28;;;;;;;24.87;76.47;100444.72;4967699;28;20541;-76
2021/07/04 08:06:51;;;;;;;4.57;4.18;;;;;;;25.54;76.74;100437.88;4976246;28;20210;-76
2021/07/04 08:09:17;;;;;;;5.53;4.93;;;;;;;25.16;76.23;100437.31;4973224;28;20190;-76
2021/07/04 08:11:48;;;;;;;5.88;5.28;;;;;;;25.46;75.20;100440.13;4959260;28;20276;-75
2021/07/04 08:14:16;;;;;;;5.53;5.03;;;;;;;25.25;76.12;100445.38;4969551;28;20206;-74
2021/07/04 08:16:49;;;;;;;5.00;4.60;;;;;;;25.42;76.86;100434.53;4990279;28;20221;-74
2021/07/04 08:19:15;;;;;;;6.80;6.15;;;;;;;25.22;77.69;100433.03;4991336;28;20746;-75
2021/07/04 08:21:41;;;;;;;64.60;57.88;;;;;;;25.19;79.51;100435.75;4987319;28;20219;-76
2021/07/04 08:24:09;;;;;;;6.00;5.40;;;;;;;25.14;78.48;100438.84;4963539;28;20258;-75
2021/07/04 08:26:35;;;;;;;5.55;5.05;;;;;;;24.91;78.72;100451.16;4991929;28;20266;-74
2021/07/04 08:29:01;;;;;;;6.55;5.20;;;;;;;24.91;78.93;100440.84;4994361;28;20198;-76
2021/07/04 08:31:27;;;;;;;5.50;5.00;;;;;;;25.18;82.67;100434.13;4957201;28;20234;-75
2021/07/04 08:33:56;;;;;;;5.47;5.00;;;;;;;25.06;80.02;100434.34;4969531;28;20185;-76
2021/07/04 08:36:30;;;;;;;4.97;4.57;;;;;;;25.38;79.36;100432.84;4992935;28;20217;-75
2021/07/04 08:38:58;;;;;;;4.78;4.38;;;;;;;25.67;77.89;100438.47;4978396;28;20209;-76
2021/07/04 08:41:31;;;;;;;5.25;4.85;;;;;;;25.81;75.87;100428.34;4973702;28;20229;-75
2021/07/04 08:44:08;;;;;;;6.07;5.40;;;;;;;25.44;75.08;100439.69;4975206;28;20186;-74
2021/07/04 08:46:41;;;;;;;6.63;4.68;;;;;;;25.81;76.50;100435.91;4957690;28;20221;-77
2021/07/04 08:49:07;;;;;;;5.75;5.35;;;;;;;25.25;77.22;100429.47;4975820;28;20756;-75
2021/07/04 08:51:37;;;;;;;6.10;5.60;;;;;;;24.92;78.53;100425.75;4984188;28;20770;-76
2021/07/04 08:54:02;;;;;;;6.20;5.60;;;;;;;24.74;79.69;100429.41;4962247;28;20193;-76
2021/07/04 08:56:28;;;;;;;6.30;5.63;;;;;;;24.69;79.39;100432.50;4961221;28;20228;-77
2021/07/04 08:58:59;;;;;;;5.93;5.43;;;;;;;24.28;82.42;100426.97;4962510;28;20209;-77
2021/07/04 09:01:28;;;;;;;6.13;5.53;;;;;;;24.60;84.03;100420.84;4992044;28;20240;-77
2021/07/04 09:04:06;;;;;;;6.32;5.82;;;;;;;24.66;83.53;100427.69;4996519;28;20231;-76
2021/07/04 09:06:42;;;;;;;6.40;5.90;;;;;;;24.70;84.24;100416.63;5003831;28;20225;-75
2021/07/04 09:09:16;;;;;;;6.82;6.32;;;;;;;24.73;84.85;100421.47;4978455;28;20228;-78
2021/07/04 09:12:03;;;;;;;6.95;6.28;;;;;;;24.40;86.45;100424.81;4995697;28;20235;-76
2021/07/04 09:14:35;;;;;;;6.72;6.15;;;;;;;24.45;84.95;100424.53;4977391;28;20273;-76
2021/07/04 09:17:03;;;;;;;6.43;5.82;;;;;;;24.78;85.65;100413.63;4957440;28;20230;-77
2021/07/04 09:19:37;;;;;;;6.47;5.97;;;;;;;25.16;77.13;100409.50;4977062;28;20670;-80
2021/07/04 09:22:10;;;;;;;6.20;5.70;;;;;;;25.44;78.43;100409.91;4970118;28;20214;-77
2021/07/04 09:24:42;;;;;;;6.30;5.72;;;;;;;25.79;72.18;100407.63;4974576;28;20186;-76
2021/07/04 09:27:11;;;;;;;6.55;5.60;;;;;;;25.91;72.56;100408.16;4977239;28;20237;-75
2021/07/04 09:29:47;;;;;;;5.90;5.40;;;;;;;25.92;72.30;100407.78;4977677;28;20212;-76
2021/07/04 09:32:24;;;;;;;5.88;5.28;;;;;;;25.92;70.76;100409.00;4972953;28;20240;-79
2021/07/04 09:35:13;;;;;;;5.78;5.30;;;;;;;26.14;67.81;100401.28;4980496;28;20651;-76
2021/07/04 09:37:44;;;;;;;5.88;5.35;;;;;;;26.44;66.54;100407.59;4977495;28;20227;-75
2021/07/04 09:40:23;;;;;;;6.00;5.50;;;;;;;26.36;67.21;100400.34;4958701;28;20236;-75
2021/07/04 09:43:06;;;;;;;6.10;5.30;;;;;;;26.33;67.01;100403.91;5008979;28;20957;-76
2021/07/04 09:45:47;;;;;;;6.15;5.60;;;;;;;26.15;68.73;100402.88;4992569;28;20279;-77
2021/07/04 09:48:16;;;;;;;5.63;5.13;;;;;;;26.69;65.85;100405.88;4976835;28;20835;-75
2021/07/04 09:50:48;;;;;;;6.18;5.60;;;;;;;26.62;63.65;100401.00;4974922;28;20703;-76
2021/07/04 09:53:14;;;;;;;5.60;5.10;;;;;;;26.33;65.52;100398.31;4963095;28;20198;-76
2021/07/04 09:55:42;;;;;;;5.90;5.30;;;;;;;26.59;65.57;100400.97;4977224;28;20283;-77
2021/07/04 09:58:15;;;;;;;6.05;5.50;;;;;;;26.60;61.61;100394.22;4986582;28;20801;-76
2021/07/04 10:00:43;;;;;;;6.00;5.50;;;;;;;26.17;62.31;100394.13;5007295;28;20213;-76
2021/07/04 10:03:21;;;;;;;5.57;5.15;;;;;;;26.47;63.37;100395.69;4976247;28;20189;-77
2021/07/04 10:05:50;;;;;;;5.32;4.93;;;;;;;26.31;64.51;100395.13;4968500;28;20229;-75
2021/07/04 10:08:19;;;;;;;5.78;5.35;;;;;;;26.98;63.44;100378.66;5013521;28;20201;-76
2021/07/04 10:10:44;;;;;;;5.50;5.10;;;;;;;27.26;60.39;100382.41;5003678;28;20309;-76
2021/07/04 10:13:10;;;;;;;5.88;5.38;;;;;;;27.52;61.22;100385.78;4967006;28;20205;-73
2021/07/04 10:15:36;;;;;;;5.32;4.93;;;;;;;27.43;62.01;100383.72;4970902;28;21058;-74
2021/07/04 10:18:02;;;;;;;5.53;4.93;;;;;;;27.25;59.59;100385.59;4958782;28;20214;-74
2021/07/04 10:20:34;;;;;;;5.85;4.97;;;;;;;27.25;59.01;100385.59;4985829;28;20225;-76
2021/07/04 10:23:07;;;;;;;5.45;4.93;;;;;;;27.28;60.22;100391.19;4966151;28;20205;-76
2021/07/04 10:25:33;;;;;;;12.38;10.82;;;;;;;27.07;62.18;100381.06;4941165;28;20280;-74
2021/07/04 10:28:04;;;;;;;8.13;7.25;;;;;;;26.99;64.23;100388.59;4959190;28;20209;-75
2021/07/04 10:30:31;;;;;;;7.47;5.68;;;;;;;26.69;61.69;100385.13;4975468;28;20253;-74
2021/07/04 10:33:19;;;;;;;6.93;5.10;;;;;;;26.74;62.09;100381.22;4988922;28;20171;-73
2021/07/04 10:36:02;;;;;;;6.22;5.63;;;;;;;26.55;63.26;100375.06;5015140;28;20226;-73
2021/07/04 10:38:54;;;;;;;11.40;6.47;;;;;;;26.75;62.50;100380.81;4971938;28;20438;-73
2021/07/04 10:41:33;;;;;;;14.25;10.38;;;;;;;26.34;64.58;100367.28;4974813;28;20229;-74
2021/07/04 10:44:08;;;;;;;5.35;4.95;;;;;;;26.80;63.42;100368.50;4975954;28;20189;-74
2021/07/04 10:46:41;;;;;;;6.75;6.25;;;;;;;26.87;62.83;100358.25;4992482;28;20241;-76
2021/07/04 10:49:14;;;;;;;7.95;7.18;;;;;;;26.79;63.19;100364.09;4984982;28;20205;-74
2021/07/04 10:52:03;;;;;;;6.97;6.13;;;;;;;26.77;60.51;100363.69;4965942;28;20217;-77
2021/07/04 10:54:38;;;;;;;6.60;6.00;;;;;;;26.63;63.42;100363.59;4949050;28;20204;-76
2021/07/04 10:57:08;;;;;;;13.63;6.93;;;;;;;27.16;62.11;100354.44;4985563;28;20222;-75
2021/07/04 10:59:59;;;;;;;6.35;5.75;;;;;;;26.72;60.77;100362.06;5004166;28;20573;-72
2021/07/04 11:02:56;;;;;;;7.68;6.90;;;;;;;26.83;60.24;100343.47;4981627;28;20220;-72
2021/07/04 11:05:34;;;;;;;6.70;6.10;;;;;;;26.50;61.56;100356.72;4970785;28;20189;-72
2021/07/04 11:08:09;;;;;;;6.88;6.18;;;;;;;26.69;63.10;100355.69;4975787;28;20209;-71
2021/07/04 11:10:55;;;;;;;7.75;7.05;;;;;;;26.95;62.79;100342.34;4964846;28;20300;-74
2021/07/04 11:13:21;;;;;;;15.00;13.57;;;;;;;27.28;63.70;100349.34;4967473;28;20263;-77
2021/07/04 11:15:50;;;;;;;6.63;5.57;;;;;;;27.42;62.66;100335.47;4990223;28;20225;-75
2021/07/04 11:18:19;;;;;;;6.18;5.68;;;;;;;27.26;62.17;100331.38;4961202;28;20253;-77
2021/07/04 11:20:49;;;;;;;6.38;5.82;;;;;;;27.11;60.10;100338.09;4978891;28;20221;-72
2021/07/04 11:23:19;;;;;;;6.78;6.18;;;;;;;27.42;58.83;100331.84;4994866;28;20216;-70
2021/07/04 11:26:13;;;;;;;6.20;5.70;;;;;;;27.20;60.50;100332.97;4991996;28;20645;-69
2021/07/04 11:28:44;;;;;;;6.22;5.72;;;;;;;26.62;59.89;100333.31;4993798;28;20364;-74
2021/07/04 11:31:16;;;;;;;6.50;5.90;;;;;;;26.82;61.89;100321.50;4980045;28;20745;-75
2021/07/04 11:33:45;;;;;;;6.03;5.53;;;;;;;26.71;63.38;100324.22;4999949;28;20200;-76